QJE1509 YSSY-YSCB
Flight info
| Callsign | QJE1509 |
|---|---|
| Flight time | 0h 30m |
| Altitude | 22000 |
| Route | TESAT H65 CB |
| Aircraft | E190/M-SDE2E3FGHIRWYZ/S |
Departure
| Time | 2026-05-07 09:36 |
|---|---|
| Airport | Sydney Kingsford Smith International Airport (YSSY) |
Arrival
| Time | 2026-05-07 10:06 |
|---|---|
| Airport | Canberra Airport (YSCB) |
| Time | Latitude | Longitude | Altitude | Speed | Heading |
|---|---|---|---|---|---|
| 2026-05-07 09:09 | -33.93160 | 151.17910 | 29 ft | 0 kts | 191° |
| 2026-05-07 09:20 | -33.93157 | 151.17911 | 29 ft | 3 kts | 191° |
| 2026-05-07 09:21 | -33.93135 | 151.17917 | 29 ft | 3 kts | 196° |
| 2026-05-07 09:21 | -33.93114 | 151.17925 | 29 ft | 3 kts | 205° |
| 2026-05-07 09:21 | -33.93095 | 151.17938 | 29 ft | 3 kts | 226° |
| 2026-05-07 09:21 | -33.93085 | 151.17957 | 29 ft | 3 kts | 276° |
| 2026-05-07 09:22 | -33.93085 | 151.17960 | 29 ft | 3 kts | 280° |
| 2026-05-07 09:29 | -33.93082 | 151.17941 | 29 ft | 6 kts | 280° |
| 2026-05-07 09:29 | -33.93070 | 151.17861 | 29 ft | 13 kts | 280° |
| 2026-05-07 09:29 | -33.93054 | 151.17747 | 29 ft | 14 kts | 280° |
| 2026-05-07 09:29 | -33.93017 | 151.17614 | 29 ft | 10 kts | 281° |
| 2026-05-07 09:30 | -33.93020 | 151.17542 | 29 ft | 5 kts | 199° |
| 2026-05-07 09:30 | -33.93082 | 151.17525 | 29 ft | 13 kts | 195° |
| 2026-05-07 09:30 | -33.93193 | 151.17537 | 29 ft | 20 kts | 171° |
| 2026-05-07 09:30 | -33.93316 | 151.17571 | 29 ft | 16 kts | 168° |
| 2026-05-07 09:31 | -33.93456 | 151.17593 | 29 ft | 24 kts | 188° |
| 2026-05-07 09:31 | -33.93634 | 151.17629 | 28 ft | 26 kts | 157° |
| 2026-05-07 09:31 | -33.93753 | 151.17777 | 29 ft | 15 kts | 124° |
| 2026-05-07 09:31 | -33.93803 | 151.17891 | 29 ft | 16 kts | 108° |
| 2026-05-07 09:32 | -33.93783 | 151.18023 | 29 ft | 17 kts | 69° |
| 2026-05-07 09:32 | -33.93743 | 151.18164 | 29 ft | 19 kts | 73° |
| 2026-05-07 09:32 | -33.93711 | 151.18323 | 29 ft | 20 kts | 76° |
| 2026-05-07 09:32 | -33.93675 | 151.18496 | 29 ft | 22 kts | 76° |
| 2026-05-07 09:33 | -33.93628 | 151.18677 | 29 ft | 23 kts | 75° |
| 2026-05-07 09:33 | -33.93664 | 151.18810 | 28 ft | 16 kts | 167° |
| 2026-05-07 09:33 | -33.93691 | 151.18820 | 27 ft | 0 kts | 164° |
| 2026-05-07 09:33 | -33.93692 | 151.18820 | 27 ft | 0 kts | 164° |
| 2026-05-07 09:34 | -33.93714 | 151.18827 | 30 ft | 8 kts | 167° |
| 2026-05-07 09:34 | -33.93797 | 151.18796 | 27 ft | 17 kts | 233° |
| 2026-05-07 09:34 | -33.93807 | 151.18765 | 24 ft | 0 kts | 255° |
| 2026-05-07 09:35 | -33.93821 | 151.18700 | 25 ft | 36 kts | 255° |
| 2026-05-07 09:35 | -33.93968 | 151.18078 | 28 ft | 116 kts | 255° |
| 2026-05-07 09:35 | -33.94257 | 151.16880 | 218 ft | 175 kts | 255° |
| 2026-05-07 09:35 | -33.94697 | 151.15276 | 444 ft | 231 kts | 249° |
| 2026-05-07 09:36 | -33.95472 | 151.13629 | 1555 ft | 205 kts | 235° |
| 2026-05-07 09:36 | -33.96361 | 151.12367 | 1636 ft | 192 kts | 228° |
| 2026-05-07 09:36 | -33.97370 | 151.11308 | 1421 ft | 192 kts | 218° |
| 2026-05-07 09:36 | -33.98499 | 151.10732 | 1734 ft | 174 kts | 203° |
| 2026-05-07 09:37 | -33.99736 | 151.10338 | 2574 ft | 193 kts | 201° |
| 2026-05-07 09:37 | -34.01190 | 151.09700 | 2563 ft | 249 kts | 213° |
| 2026-05-07 09:37 | -34.02675 | 151.08622 | 3703 ft | 255 kts | 213° |
| 2026-05-07 09:37 | -34.04293 | 151.07457 | 4080 ft | 285 kts | 211° |
| 2026-05-07 09:38 | -34.06074 | 151.06210 | 4578 ft | 304 kts | 210° |
| 2026-05-07 09:38 | -34.07930 | 151.04930 | 5372 ft | 311 kts | 209° |
| 2026-05-07 09:38 | -34.09887 | 151.03617 | 6117 ft | 335 kts | 208° |
| 2026-05-07 09:38 | -34.11973 | 151.02327 | 6825 ft | 334 kts | 205° |
| 2026-05-07 09:39 | -34.14018 | 151.01236 | 7543 ft | 307 kts | 204° |
| 2026-05-07 09:39 | -34.15842 | 151.00246 | 7680 ft | 282 kts | 204° |
| 2026-05-07 09:39 | -34.17612 | 150.99309 | 7602 ft | 273 kts | 204° |
| 2026-05-07 09:39 | -34.19509 | 150.98313 | 7846 ft | 315 kts | 204° |
| 2026-05-07 09:40 | -34.21423 | 150.97319 | 8760 ft | 288 kts | 204° |
| 2026-05-07 09:40 | -34.23301 | 150.96317 | 8945 ft | 302 kts | 204° |
| 2026-05-07 09:40 | -34.25232 | 150.95298 | 9110 ft | 304 kts | 204° |
| 2026-05-07 09:40 | -34.27155 | 150.94286 | 9295 ft | 302 kts | 204° |
| 2026-05-07 09:41 | -34.29076 | 150.93276 | 9496 ft | 301 kts | 204° |
| 2026-05-07 09:41 | -34.31000 | 150.92255 | 9817 ft | 304 kts | 205° |
| 2026-05-07 09:41 | -34.32896 | 150.91247 | 10165 ft | 290 kts | 204° |
| 2026-05-07 09:41 | -34.34657 | 150.90318 | 10472 ft | 270 kts | 204° |
| 2026-05-07 09:42 | -34.36400 | 150.89393 | 10963 ft | 276 kts | 204° |
| 2026-05-07 09:42 | -34.38178 | 150.88454 | 11535 ft | 280 kts | 204° |
| 2026-05-07 09:42 | -34.39955 | 150.87510 | 12281 ft | 278 kts | 204° |
| 2026-05-07 09:42 | -34.41720 | 150.86575 | 13050 ft | 276 kts | 204° |
| 2026-05-07 09:43 | -34.43473 | 150.85647 | 13820 ft | 274 kts | 204° |
| 2026-05-07 09:43 | -34.45215 | 150.84720 | 14528 ft | 272 kts | 203° |
| 2026-05-07 09:43 | -34.46918 | 150.83818 | 15226 ft | 270 kts | 203° |
| 2026-05-07 09:43 | -34.48630 | 150.82908 | 15972 ft | 267 kts | 202° |
| 2026-05-07 09:44 | -34.50326 | 150.82006 | 16717 ft | 265 kts | 202° |
| 2026-05-07 09:44 | -34.52008 | 150.81113 | 17486 ft | 262 kts | 202° |
| 2026-05-07 09:44 | -34.53649 | 150.80161 | 18277 ft | 262 kts | 211° |
| 2026-05-07 09:44 | -34.55033 | 150.78711 | 18986 ft | 264 kts | 218° |
| 2026-05-07 09:45 | -34.56306 | 150.77106 | 19673 ft | 264 kts | 220° |
| 2026-05-07 09:45 | -34.57537 | 150.75456 | 20377 ft | 263 kts | 221° |
| 2026-05-07 09:45 | -34.58744 | 150.73798 | 21041 ft | 261 kts | 221° |
| 2026-05-07 09:45 | -34.59913 | 150.72164 | 21760 ft | 261 kts | 221° |
| 2026-05-07 09:46 | -34.61077 | 150.70346 | 21729 ft | 284 kts | 225° |
| 2026-05-07 09:46 | -34.62288 | 150.68355 | 21763 ft | 302 kts | 226° |
| 2026-05-07 09:46 | -34.63556 | 150.66239 | 21788 ft | 318 kts | 226° |
| 2026-05-07 09:46 | -34.64895 | 150.64011 | 21799 ft | 334 kts | 227° |
| 2026-05-07 09:47 | -34.66292 | 150.61684 | 21813 ft | 348 kts | 227° |
| 2026-05-07 09:47 | -34.67749 | 150.59270 | 21808 ft | 360 kts | 227° |
| 2026-05-07 09:47 | -34.69229 | 150.56788 | 21797 ft | 364 kts | 227° |
| 2026-05-07 09:47 | -34.70723 | 150.54305 | 21785 ft | 363 kts | 227° |
| 2026-05-07 09:48 | -34.72194 | 150.51858 | 21783 ft | 363 kts | 227° |
| 2026-05-07 09:48 | -34.73682 | 150.49377 | 21778 ft | 363 kts | 227° |
| 2026-05-07 09:48 | -34.75169 | 150.46900 | 21772 ft | 363 kts | 227° |
| 2026-05-07 09:48 | -34.76652 | 150.44425 | 21714 ft | 362 kts | 228° |
| 2026-05-07 09:49 | -34.78135 | 150.41943 | 21772 ft | 363 kts | 228° |
| 2026-05-07 09:49 | -34.79617 | 150.39463 | 21800 ft | 363 kts | 228° |
| 2026-05-07 09:49 | -34.81101 | 150.36977 | 21832 ft | 363 kts | 228° |
| 2026-05-07 09:49 | -34.82588 | 150.34507 | 21788 ft | 359 kts | 228° |
| 2026-05-07 09:50 | -34.84039 | 150.32056 | 21803 ft | 363 kts | 228° |
| 2026-05-07 09:50 | -34.85521 | 150.29575 | 21797 ft | 363 kts | 228° |
| 2026-05-07 09:50 | -34.87002 | 150.27088 | 21797 ft | 362 kts | 228° |
| 2026-05-07 09:50 | -34.88462 | 150.24583 | 21726 ft | 364 kts | 231° |
| 2026-05-07 09:51 | -34.89729 | 150.21890 | 21710 ft | 367 kts | 233° |
| 2026-05-07 09:51 | -34.91065 | 150.19258 | 21719 ft | 364 kts | 230° |
| 2026-05-07 09:51 | -34.92476 | 150.16693 | 21703 ft | 364 kts | 230° |
| 2026-05-07 09:51 | -34.93929 | 150.14164 | 21739 ft | 364 kts | 229° |
| 2026-05-07 09:52 | -34.95406 | 150.11653 | 21772 ft | 364 kts | 229° |
| 2026-05-07 09:52 | -34.96874 | 150.09188 | 21829 ft | 365 kts | 229° |
| 2026-05-07 09:52 | -34.98364 | 150.06676 | 21807 ft | 365 kts | 229° |
| 2026-05-07 09:52 | -34.99843 | 150.04158 | 21810 ft | 366 kts | 229° |
| 2026-05-07 09:53 | -35.01350 | 150.01671 | 21802 ft | 363 kts | 225° |
| 2026-05-07 09:53 | -35.03048 | 149.99412 | 21809 ft | 360 kts | 222° |
| 2026-05-07 09:53 | -35.04782 | 149.97205 | 21813 ft | 361 kts | 222° |
| 2026-05-07 09:53 | -35.06526 | 149.95002 | 21812 ft | 361 kts | 222° |
| 2026-05-07 09:54 | -35.08160 | 149.92660 | 21808 ft | 364 kts | 227° |
| 2026-05-07 09:54 | -35.09693 | 149.90254 | 21807 ft | 364 kts | 227° |
| 2026-05-07 09:54 | -35.11237 | 149.87840 | 21544 ft | 361 kts | 227° |
| 2026-05-07 09:54 | -35.12796 | 149.85436 | 21117 ft | 359 kts | 227° |
| 2026-05-07 09:55 | -35.14336 | 149.83067 | 20681 ft | 354 kts | 226° |
| 2026-05-07 09:55 | -35.15861 | 149.80715 | 20269 ft | 352 kts | 226° |
| 2026-05-07 09:55 | -35.17370 | 149.78373 | 19854 ft | 350 kts | 226° |
| 2026-05-07 09:55 | -35.18869 | 149.76033 | 19432 ft | 349 kts | 226° |
| 2026-05-07 09:56 | -35.20354 | 149.73696 | 19024 ft | 347 kts | 226° |
| 2026-05-07 09:56 | -35.21805 | 149.71395 | 18654 ft | 345 kts | 226° |
| 2026-05-07 09:56 | -35.23258 | 149.69068 | 18221 ft | 343 kts | 226° |
| 2026-05-07 09:56 | -35.24699 | 149.66754 | 17768 ft | 341 kts | 226° |
| 2026-05-07 09:57 | -35.26127 | 149.64454 | 17309 ft | 339 kts | 226° |
| 2026-05-07 09:57 | -35.27547 | 149.62161 | 16873 ft | 337 kts | 226° |
| 2026-05-07 09:57 | -35.28958 | 149.59877 | 16430 ft | 336 kts | 227° |
| 2026-05-07 09:57 | -35.30372 | 149.57608 | 16004 ft | 335 kts | 227° |
| 2026-05-07 09:58 | -35.31788 | 149.55352 | 15570 ft | 334 kts | 227° |
| 2026-05-07 09:58 | -35.33209 | 149.53093 | 15062 ft | 336 kts | 227° |
| 2026-05-07 09:58 | -35.34624 | 149.50852 | 14558 ft | 337 kts | 226° |
| 2026-05-07 09:58 | -35.36063 | 149.48573 | 14064 ft | 338 kts | 226° |
| 2026-05-07 09:59 | -35.37514 | 149.46288 | 13211 ft | 334 kts | 227° |
| 2026-05-07 09:59 | -35.38866 | 149.44150 | 12346 ft | 303 kts | 227° |
| 2026-05-07 09:59 | -35.40110 | 149.42183 | 11492 ft | 282 kts | 227° |
| 2026-05-07 09:59 | -35.41288 | 149.40336 | 10659 ft | 269 kts | 227° |
| 2026-05-07 10:00 | -35.42424 | 149.38577 | 9822 ft | 257 kts | 227° |
| 2026-05-07 10:00 | -35.43357 | 149.36802 | 8934 ft | 245 kts | 245° |
| 2026-05-07 10:00 | -35.43432 | 149.34739 | 8068 ft | 246 kts | 273° |
| 2026-05-07 10:00 | -35.43226 | 149.32765 | 7315 ft | 227 kts | 263° |
| 2026-05-07 10:01 | -35.43228 | 149.30919 | 6667 ft | 206 kts | 260° |
| 2026-05-07 10:01 | -35.43287 | 149.29221 | 6001 ft | 193 kts | 259° |
| 2026-05-07 10:01 | -35.43410 | 149.27611 | 5221 ft | 189 kts | 258° |
| 2026-05-07 10:01 | -35.43575 | 149.26088 | 4823 ft | 173 kts | 257° |
| 2026-05-07 10:02 | -35.43754 | 149.24671 | 4341 ft | 164 kts | 257° |
| 2026-05-07 10:02 | -35.43951 | 149.23311 | 3882 ft | 161 kts | 257° |
| 2026-05-07 10:02 | -35.44176 | 149.21957 | 3361 ft | 165 kts | 258° |
| 2026-05-07 10:02 | -35.44359 | 149.20624 | 3221 ft | 151 kts | 273° |
| 2026-05-07 10:03 | -35.43929 | 149.19433 | 3807 ft | 158 kts | 307° |
| 2026-05-07 10:03 | -35.43066 | 149.18616 | 4301 ft | 166 kts | 322° |
| 2026-05-07 10:03 | -35.41877 | 149.18373 | 4433 ft | 187 kts | 359° |
| 2026-05-07 10:03 | -35.40579 | 149.18745 | 4156 ft | 188 kts | 14° |
| 2026-05-07 10:04 | -35.39330 | 149.19123 | 4046 ft | 181 kts | 4° |
| 2026-05-07 10:04 | -35.38128 | 149.19350 | 3832 ft | 164 kts | 2° |
| 2026-05-07 10:04 | -35.37032 | 149.19439 | 3497 ft | 155 kts | 352° |
| 2026-05-07 10:04 | -35.35989 | 149.19470 | 3204 ft | 152 kts | 353° |
| 2026-05-07 10:05 | -35.34949 | 149.19471 | 2872 ft | 148 kts | 353° |
| 2026-05-07 10:05 | -35.33950 | 149.19411 | 2542 ft | 140 kts | 350° |
| 2026-05-07 10:05 | -35.32956 | 149.19447 | 2225 ft | 148 kts | 359° |
| 2026-05-07 10:05 | -35.31968 | 149.19452 | 1983 ft | 138 kts | 355° |
| 2026-05-07 10:06 | -35.31045 | 149.19448 | 1881 ft | 118 kts | 353° |
| 2026-05-07 10:06 | -35.30359 | 149.19448 | 1877 ft | 77 kts | 360° |
| 2026-05-07 10:06 | -35.29944 | 149.19444 | 1878 ft | 51 kts | 359° |
| 2026-05-07 10:06 | -35.29648 | 149.19438 | 1878 ft | 27 kts | 352° |
| 2026-05-07 10:07 | -35.29582 | 149.19336 | 1878 ft | 17 kts | 266° |
| 2026-05-07 10:07 | -35.29651 | 149.19245 | 1878 ft | 16 kts | 187° |
| 2026-05-07 10:07 | -35.29768 | 149.19242 | 1878 ft | 17 kts | 180° |
| 2026-05-07 10:07 | -35.29894 | 149.19244 | 1877 ft | 19 kts | 180° |
| 2026-05-07 10:08 | -35.30028 | 149.19241 | 1878 ft | 20 kts | 181° |
| 2026-05-07 10:08 | -35.30074 | 149.19242 | 1878 ft | 20 kts | 178° |
| 2026-05-07 10:10 | -35.30175 | 149.19243 | 1875 ft | 25 kts | 183° |
| 2026-05-07 10:10 | -35.30353 | 149.19238 | 1878 ft | 26 kts | 179° |
| 2026-05-07 10:10 | -35.30535 | 149.19236 | 1875 ft | 26 kts | 181° |
| 2026-05-07 10:10 | -35.30681 | 149.19237 | 1878 ft | 21 kts | 179° |
| 2026-05-07 10:11 | -35.30785 | 149.19236 | 1877 ft | 3 kts | 180° |
| 2026-05-07 10:11 | -35.30811 | 149.19236 | 1875 ft | 5 kts | 180° |
| 2026-05-07 10:11 | -35.30841 | 149.19225 | 1877 ft | 2 kts | 239° |
| 2026-05-07 10:11 | -35.30841 | 149.19185 | 1878 ft | 8 kts | 270° |
| 2026-05-07 10:12 | -35.30841 | 149.19135 | 1878 ft | 3 kts | 270° |
| 2026-05-07 10:12 | -35.30841 | 149.19132 | 1878 ft | 0 kts | 270° |